sensor_id;sensor_type;location;lat;lon;timestamp;temperature;humidity
292;DHT22;23311;48.776;9.162;2022-09-13T00:00:44;16.30;95.40
292;DHT22;23311;48.776;9.162;2022-09-13T00:03:13;16.20;95.50
292;DHT22;23311;48.776;9.162;2022-09-13T00:05:41;16.00;95.50
292;DHT22;23311;48.776;9.162;2022-09-13T00:08:10;15.90;95.50
292;DHT22;23311;48.776;9.162;2022-09-13T00:10:40;15.80;95.50
292;DHT22;23311;48.776;9.162;2022-09-13T00:13:10;15.70;95.50
292;DHT22;23311;48.776;9.162;2022-09-13T00:15:42;15.60;95.50
292;DHT22;23311;48.776;9.162;2022-09-13T00:18:10;15.70;95.50
292;DHT22;23311;48.776;9.162;2022-09-13T00:20:39;15.70;95.50
292;DHT22;23311;48.776;9.162;2022-09-13T00:23:07;15.60;95.50
292;DHT22;23311;48.776;9.162;2022-09-13T00:25:37;15.50;95.50
292;DHT22;23311;48.776;9.162;2022-09-13T00:28:05;15.40;95.50
292;DHT22;23311;48.776;9.162;2022-09-13T00:30:33;15.30;95.50
292;DHT22;23311;48.776;9.162;2022-09-13T00:33:01;15.30;95.50
292;DHT22;23311;48.776;9.162;2022-09-13T00:35:30;15.30;95.50
292;DHT22;23311;48.776;9.162;2022-09-13T00:38:00;15.50;95.50
292;DHT22;23311;48.776;9.162;2022-09-13T00:40:29;15.60;95.50
292;DHT22;23311;48.776;9.162;2022-09-13T00:42:58;15.70;95.50
292;DHT22;23311;48.776;9.162;2022-09-13T00:45:26;15.70;95.50
292;DHT22;23311;48.776;9.162;2022-09-13T00:47:57;15.70;95.50
292;DHT22;23311;48.776;9.162;2022-09-13T00:50:29;15.70;95.50
292;DHT22;23311;48.776;9.162;2022-09-13T00:53:01;15.70;95.50
292;DHT22;23311;48.776;9.162;2022-09-13T00:55:34;15.70;95.50
292;DHT22;23311;48.776;9.162;2022-09-13T00:58:09;15.90;95.50
292;DHT22;23311;48.776;9.162;2022-09-13T01:00:38;15.80;95.50
292;DHT22;23311;48.776;9.162;2022-09-13T01:03:09;15.70;95.50
292;DHT22;23311;48.776;9.162;2022-09-13T01:05:40;15.70;95.50
292;DHT22;23311;48.776;9.162;2022-09-13T01:08:10;15.70;95.50
292;DHT22;23311;48.776;9.162;2022-09-13T01:10:45;15.60;95.50
292;DHT22;23311;48.776;9.162;2022-09-13T01:13:19;15.70;95.50
292;DHT22;23311;48.776;9.162;2022-09-13T01:15:51;15.60;95.50
292;DHT22;23311;48.776;9.162;2022-09-13T01:18:19;15.50;95.50
292;DHT22;23311;48.776;9.162;2022-09-13T01:24:14;15.40;95.50
292;DHT22;23311;48.776;9.162;2022-09-13T01:30:08;15.60;95.50
292;DHT22;23311;48.776;9.162;2022-09-13T01:32:52;15.50;95.50
292;DHT22;23311;48.776;9.162;2022-09-13T01:35:29;15.60;95.50
292;DHT22;23311;48.776;9.162;2022-09-13T01:38:07;15.60;95.50
292;DHT22;23311;48.776;9.162;2022-09-13T01:40:45;15.60;95.50
292;DHT22;23311;48.776;9.162;2022-09-13T01:43:30;15.50;95.50
292;DHT22;23311;48.776;9.162;2022-09-13T01:46:07;15.20;95.50
292;DHT22;23311;48.776;9.162;2022-09-13T01:48:48;15.00;95.50
292;DHT22;23311;48.776;9.162;2022-09-13T01:51:25;15.20;95.50
292;DHT22;23311;48.776;9.162;2022-09-13T01:54:08;15.10;95.50
292;DHT22;23311;48.776;9.162;2022-09-13T01:56:41;15.10;95.50
292;DHT22;23311;48.776;9.162;2022-09-13T01:59:18;15.00;95.50
292;DHT22;23311;48.776;9.162;2022-09-13T02:01:55;15.00;95.50
292;DHT22;23311;48.776;9.162;2022-09-13T02:04:28;14.90;95.50
292;DHT22;23311;48.776;9.162;2022-09-13T02:07:01;14.80;95.50
292;DHT22;23311;48.776;9.162;2022-09-13T02:09:34;14.70;95.50
292;DHT22;23311;48.776;9.162;2022-09-13T02:12:06;14.60;95.50
292;DHT22;23311;48.776;9.162;2022-09-13T02:14:37;14.50;95.50
292;DHT22;23311;48.776;9.162;2022-09-13T02:17:10;14.40;95.50
292;DHT22;23311;48.776;9.162;2022-09-13T02:19:46;14.40;95.50
292;DHT22;23311;48.776;9.162;2022-09-13T02:22:19;14.40;95.50
292;DHT22;23311;48.776;9.162;2022-09-13T02:24:52;14.60;95.50
292;DHT22;23311;48.776;9.162;2022-09-13T02:27:24;14.60;95.50
292;DHT22;23311;48.776;9.162;2022-09-13T02:29:57;14.50;95.50
292;DHT22;23311;48.776;9.162;2022-09-13T02:32:31;14.40;95.50
292;DHT22;23311;48.776;9.162;2022-09-13T02:35:04;14.30;95.50
292;DHT22;23311;48.776;9.162;2022-09-13T02:37:35;14.30;95.50
292;DHT22;23311;48.776;9.162;2022-09-13T02:40:09;14.20;95.50
292;DHT22;23311;48.776;9.162;2022-09-13T02:42:43;14.20;95.50
292;DHT22;23311;48.776;9.162;2022-09-13T02:45:13;14.20;95.50
292;DHT22;23311;48.776;9.162;2022-09-13T02:47:46;14.20;95.50
292;DHT22;23311;48.776;9.162;2022-09-13T02:50:29;14.30;95.50
292;DHT22;23311;48.776;9.162;2022-09-13T02:53:03;14.10;95.50
292;DHT22;23311;48.776;9.162;2022-09-13T02:55:40;14.20;95.50
292;DHT22;23311;48.776;9.162;2022-09-13T02:58:11;14.20;95.50
292;DHT22;23311;48.776;9.162;2022-09-13T03:00:40;14.10;95.50
292;DHT22;23311;48.776;9.162;2022-09-13T03:03:11;14.20;95.50
292;DHT22;23311;48.776;9.162;2022-09-13T03:05:41;14.10;95.50
292;DHT22;23311;48.776;9.162;2022-09-13T03:08:11;14.00;95.50
292;DHT22;23311;48.776;9.162;2022-09-13T03:10:50;13.90;95.50
292;DHT22;23311;48.776;9.162;2022-09-13T03:13:39;13.90;95.50
292;DHT22;23311;48.776;9.162;2022-09-13T03:16:23;13.90;95.50
292;DHT22;23311;48.776;9.162;2022-09-13T03:19:08;14.00;95.50
292;DHT22;23311;48.776;9.162;2022-09-13T03:21:52;14.00;95.50
292;DHT22;23311;48.776;9.162;2022-09-13T03:24:30;14.00;95.50
292;DHT22;23311;48.776;9.162;2022-09-13T03:27:10;13.90;95.50
292;DHT22;23311;48.776;9.162;2022-09-13T03:29:51;13.90;95.50
292;DHT22;23311;48.776;9.162;2022-09-13T03:32:27;13.80;95.50
292;DHT22;23311;48.776;9.162;2022-09-13T03:35:06;14.00;95.50
292;DHT22;23311;48.776;9.162;2022-09-13T03:37:46;13.90;95.50
292;DHT22;23311;48.776;9.162;2022-09-13T03:40:23;13.80;95.50
292;DHT22;23311;48.776;9.162;2022-09-13T03:42:57;13.70;95.50
292;DHT22;23311;48.776;9.162;2022-09-13T03:45:29;13.70;95.50
292;DHT22;23311;48.776;9.162;2022-09-13T03:47:58;13.70;95.50
292;DHT22;23311;48.776;9.162;2022-09-13T03:50:29;13.60;95.50
292;DHT22;23311;48.776;9.162;2022-09-13T03:52:59;13.60;95.50
292;DHT22;23311;48.776;9.162;2022-09-13T03:55:29;13.60;95.50
292;DHT22;23311;48.776;9.162;2022-09-13T03:57:58;13.60;95.50
292;DHT22;23311;48.776;9.162;2022-09-13T04:00:26;13.50;95.50
292;DHT22;23311;48.776;9.162;2022-09-13T04:02:55;13.50;95.50
292;DHT22;23311;48.776;9.162;2022-09-13T04:05:23;13.80;95.50
292;DHT22;23311;48.776;9.162;2022-09-13T04:07:52;13.80;95.50
292;DHT22;23311;48.776;9.162;2022-09-13T04:10:20;13.70;95.50
292;DHT22;23311;48.776;9.162;2022-09-13T04:12:49;13.60;95.50
292;DHT22;23311;48.776;9.162;2022-09-13T04:15:18;13.60;95.50
292;DHT22;23311;48.776;9.162;2022-09-13T04:17:46;13.50;95.50
292;DHT22;23311;48.776;9.162;2022-09-13T04:20:14;13.60;95.50
292;DHT22;23311;48.776;9.162;2022-09-13T04:22:42;13.60;95.50
292;DHT22;23311;48.776;9.162;2022-09-13T04:25:11;13.80;95.50
292;DHT22;23311;48.776;9.162;2022-09-13T04:27:39;13.90;95.50
292;DHT22;23311;48.776;9.162;2022-09-13T04:30:08;13.90;95.50
292;DHT22;23311;48.776;9.162;2022-09-13T04:32:37;13.90;95.50
292;DHT22;23311;48.776;9.162;2022-09-13T04:35:05;14.00;95.50
292;DHT22;23311;48.776;9.162;2022-09-13T04:37:34;14.10;95.50
292;DHT22;23311;48.776;9.162;2022-09-13T04:40:02;14.10;95.50
292;DHT22;23311;48.776;9.162;2022-09-13T04:42:31;14.10;95.50
292;DHT22;23311;48.776;9.162;2022-09-13T04:44:59;14.30;95.50
292;DHT22;23311;48.776;9.162;2022-09-13T04:47:27;14.40;95.50
292;DHT22;23311;48.776;9.162;2022-09-13T04:49:55;14.40;95.50
292;DHT22;23311;48.776;9.162;2022-09-13T04:52:23;14.50;95.50
292;DHT22;23311;48.776;9.162;2022-09-13T04:54:51;14.50;95.50
292;DHT22;23311;48.776;9.162;2022-09-13T04:57:20;14.70;95.50
292;DHT22;23311;48.776;9.162;2022-09-13T04:59:49;14.70;95.50
292;DHT22;23311;48.776;9.162;2022-09-13T05:02:17;14.80;95.50
292;DHT22;23311;48.776;9.162;2022-09-13T05:04:45;14.90;95.50
292;DHT22;23311;48.776;9.162;2022-09-13T05:07:13;14.90;95.50
292;DHT22;23311;48.776;9.162;2022-09-13T05:09:41;14.90;95.50
292;DHT22;23311;48.776;9.162;2022-09-13T05:12:09;14.90;95.50
292;DHT22;23311;48.776;9.162;2022-09-13T05:14:38;14.90;95.50
292;DHT22;23311;48.776;9.162;2022-09-13T05:17:07;14.80;95.50
292;DHT22;23311;48.776;9.162;2022-09-13T05:19:35;14.70;95.50
292;DHT22;23311;48.776;9.162;2022-09-13T05:22:03;14.60;95.50
292;DHT22;23311;48.776;9.162;2022-09-13T05:24:31;14.60;95.50
292;DHT22;23311;48.776;9.162;2022-09-13T05:27:00;14.70;95.50
292;DHT22;23311;48.776;9.162;2022-09-13T05:29:28;14.80;95.50
292;DHT22;23311;48.776;9.162;2022-09-13T05:31:56;14.80;95.50
292;DHT22;23311;48.776;9.162;2022-09-13T05:34:25;14.80;95.50
292;DHT22;23311;48.776;9.162;2022-09-13T05:36:53;14.80;95.50
292;DHT22;23311;48.776;9.162;2022-09-13T05:39:22;14.90;95.50
292;DHT22;23311;48.776;9.162;2022-09-13T05:42:10;14.80;95.50
292;DHT22;23311;48.776;9.162;2022-09-13T05:44:38;14.80;95.50
292;DHT22;23311;48.776;9.162;2022-09-13T05:47:06;14.80;95.50
292;DHT22;23311;48.776;9.162;2022-09-13T05:49:36;14.80;95.50
292;DHT22;23311;48.776;9.162;2022-09-13T05:52:24;14.90;95.50
292;DHT22;23311;48.776;9.162;2022-09-13T05:54:52;14.90;95.50
292;DHT22;23311;48.776;9.162;2022-09-13T05:57:19;15.00;95.50
292;DHT22;23311;48.776;9.162;2022-09-13T05:59:47;15.00;95.50
292;DHT22;23311;48.776;9.162;2022-09-13T06:02:15;15.10;95.50
292;DHT22;23311;48.776;9.162;2022-09-13T06:04:45;15.20;95.50
292;DHT22;23311;48.776;9.162;2022-09-13T06:07:13;15.40;95.50
292;DHT22;23311;48.776;9.162;2022-09-13T06:09:41;15.60;95.50
292;DHT22;23311;48.776;9.162;2022-09-13T06:12:09;15.90;95.50
292;DHT22;23311;48.776;9.162;2022-09-13T06:14:37;16.10;95.50
292;DHT22;23311;48.776;9.162;2022-09-13T06:17:06;16.20;95.50
292;DHT22;23311;48.776;9.162;2022-09-13T06:19:34;16.30;95.50
292;DHT22;23311;48.776;9.162;2022-09-13T06:22:03;16.30;95.50
292;DHT22;23311;48.776;9.162;2022-09-13T06:24:31;16.30;95.50
292;DHT22;23311;48.776;9.162;2022-09-13T06:26:59;16.40;95.50
292;DHT22;23311;48.776;9.162;2022-09-13T06:29:27;16.30;95.50
292;DHT22;23311;48.776;9.162;2022-09-13T06:31:55;16.30;95.50
292;DHT22;23311;48.776;9.162;2022-09-13T06:34:23;16.20;95.50
292;DHT22;23311;48.776;9.162;2022-09-13T06:36:57;16.20;95.50
292;DHT22;23311;48.776;9.162;2022-09-13T06:39:26;16.30;95.50
292;DHT22;23311;48.776;9.162;2022-09-13T06:41:57;16.20;95.50
292;DHT22;23311;48.776;9.162;2022-09-13T06:44:25;16.30;95.50
292;DHT22;23311;48.776;9.162;2022-09-13T06:46:53;16.50;95.50
292;DHT22;23311;48.776;9.162;2022-09-13T06:49:21;16.70;95.50
292;DHT22;23311;48.776;9.162;2022-09-13T06:51:49;16.80;95.50
292;DHT22;23311;48.776;9.162;2022-09-13T06:54:17;16.90;95.50
292;DHT22;23311;48.776;9.162;2022-09-13T06:56:46;17.00;95.50
292;DHT22;23311;48.776;9.162;2022-09-13T06:59:15;17.10;95.50
292;DHT22;23311;48.776;9.162;2022-09-13T07:01:43;17.10;95.50
292;DHT22;23311;48.776;9.162;2022-09-13T07:04:13;17.20;95.50
292;DHT22;23311;48.776;9.162;2022-09-13T07:06:42;17.20;95.50
292;DHT22;23311;48.776;9.162;2022-09-13T07:09:12;17.40;95.50
292;DHT22;23311;48.776;9.162;2022-09-13T07:11:41;17.80;95.50
292;DHT22;23311;48.776;9.162;2022-09-13T07:14:12;18.20;94.90
292;DHT22;23311;48.776;9.162;2022-09-13T07:16:41;18.70;93.60
292;DHT22;23311;48.776;9.162;2022-09-13T07:19:13;19.20;92.10
292;DHT22;23311;48.776;9.162;2022-09-13T07:21:41;19.70;90.70
292;DHT22;23311;48.776;9.162;2022-09-13T07:24:10;19.90;89.60
292;DHT22;23311;48.776;9.162;2022-09-13T07:26:38;20.00;89.60
292;DHT22;23311;48.776;9.162;2022-09-13T07:29:08;20.50;88.10
292;DHT22;23311;48.776;9.162;2022-09-13T07:31:40;20.90;86.50
292;DHT22;23311;48.776;9.162;2022-09-13T07:34:11;20.70;86.50
292;DHT22;23311;48.776;9.162;2022-09-13T07:36:40;20.30;87.40
292;DHT22;23311;48.776;9.162;2022-09-13T07:39:08;20.80;87.10
292;DHT22;23311;48.776;9.162;2022-09-13T07:41:43;21.90;84.20
292;DHT22;23311;48.776;9.162;2022-09-13T07:44:12;23.70;79.90
292;DHT22;23311;48.776;9.162;2022-09-13T07:46:42;24.20;77.90
292;DHT22;23311;48.776;9.162;2022-09-13T07:49:12;23.90;78.00
292;DHT22;23311;48.776;9.162;2022-09-13T07:51:41;23.90;78.60
292;DHT22;23311;48.776;9.162;2022-09-13T07:54:11;24.40;77.70
292;DHT22;23311;48.776;9.162;2022-09-13T07:56:40;26.20;73.90
292;DHT22;23311;48.776;9.162;2022-09-13T07:59:11;27.20;71.50
292;DHT22;23311;48.776;9.162;2022-09-13T08:01:42;28.00;69.70
292;DHT22;23311;48.776;9.162;2022-09-13T08:04:12;29.30;66.90
292;DHT22;23311;48.776;9.162;2022-09-13T08:06:40;29.60;65.90
292;DHT22;23311;48.776;9.162;2022-09-13T08:09:09;29.50;65.50
292;DHT22;23311;48.776;9.162;2022-09-13T08:11:39;29.90;64.70
292;DHT22;23311;48.776;9.162;2022-09-13T08:14:09;29.40;65.30
292;DHT22;23311;48.776;9.162;2022-09-13T08:16:38;28.50;66.80
292;DHT22;23311;48.776;9.162;2022-09-13T08:19:10;27.10;69.20
292;DHT22;23311;48.776;9.162;2022-09-13T08:21:39;25.90;71.80
292;DHT22;23311;48.776;9.162;2022-09-13T08:24:12;25.10;73.80
292;DHT22;23311;48.776;9.162;2022-09-13T08:26:41;24.80;74.60
292;DHT22;23311;48.776;9.162;2022-09-13T08:29:10;24.80;75.00
292;DHT22;23311;48.776;9.162;2022-09-13T08:31:39;24.80;75.00
292;DHT22;23311;48.776;9.162;2022-09-13T08:34:09;25.50;73.70
292;DHT22;23311;48.776;9.162;2022-09-13T08:36:38;25.60;73.20
292;DHT22;23311;48.776;9.162;2022-09-13T08:39:08;26.00;72.80
292;DHT22;23311;48.776;9.162;2022-09-13T08:42:03;26.30;72.00
292;DHT22;23311;48.776;9.162;2022-09-13T08:44:35;27.10;70.40
292;DHT22;23311;48.776;9.162;2022-09-13T08:47:21;28.20;68.10
292;DHT22;23311;48.776;9.162;2022-09-13T08:49:59;29.00;66.60
292;DHT22;23311;48.776;9.162;2022-09-13T08:52:33;29.60;65.20
292;DHT22;23311;48.776;9.162;2022-09-13T08:55:23;29.00;65.90
292;DHT22;23311;48.776;9.162;2022-09-13T08:57:54;28.50;66.60
292;DHT22;23311;48.776;9.162;2022-09-13T09:00:31;28.20;67.40
292;DHT22;23311;48.776;9.162;2022-09-13T09:03:15;28.50;66.80
292;DHT22;23311;48.776;9.162;2022-09-13T09:05:48;27.20;69.20
292;DHT22;23311;48.776;9.162;2022-09-13T09:08:28;27.00;70.10
292;DHT22;23311;48.776;9.162;2022-09-13T09:11:03;27.80;68.90
292;DHT22;23311;48.776;9.162;2022-09-13T09:13:39;28.70;67.30
292;DHT22;23311;48.776;9.162;2022-09-13T09:16:18;30.10;64.70
292;DHT22;23311;48.776;9.162;2022-09-13T09:18:52;30.50;63.60
292;DHT22;23311;48.776;9.162;2022-09-13T09:21:23;29.90;64.60
292;DHT22;23311;48.776;9.162;2022-09-13T09:23:53;29.40;65.60
292;DHT22;23311;48.776;9.162;2022-09-13T09:26:22;28.70;67.00
292;DHT22;23311;48.776;9.162;2022-09-13T09:28:54;28.60;67.40
292;DHT22;23311;48.776;9.162;2022-09-13T09:31:28;29.00;66.80
292;DHT22;23311;48.776;9.162;2022-09-13T09:34:09;29.60;65.60
292;DHT22;23311;48.776;9.162;2022-09-13T09:36:44;29.60;65.60
292;DHT22;23311;48.776;9.162;2022-09-13T09:39:15;30.00;65.20
292;DHT22;23311;48.776;9.162;2022-09-13T09:41:44;30.60;63.60
292;DHT22;23311;48.776;9.162;2022-09-13T09:44:20;30.80;63.40
292;DHT22;23311;48.776;9.162;2022-09-13T09:46:50;31.30;62.80
292;DHT22;23311;48.776;9.162;2022-09-13T09:49:26;31.10;63.00
292;DHT22;23311;48.776;9.162;2022-09-13T09:52:19;30.50;63.30
292;DHT22;23311;48.776;9.162;2022-09-13T09:54:48;29.20;66.10
292;DHT22;23311;48.776;9.162;2022-09-13T09:57:17;28.60;67.40
292;DHT22;23311;48.776;9.162;2022-09-13T09:59:46;28.50;67.90
292;DHT22;23311;48.776;9.162;2022-09-13T10:02:16;28.50;68.00
292;DHT22;23311;48.776;9.162;2022-09-13T10:04:54;28.50;67.80
292;DHT22;23311;48.776;9.162;2022-09-13T10:07:27;28.50;68.20
292;DHT22;23311;48.776;9.162;2022-09-13T10:10:00;28.90;67.10
292;DHT22;23311;48.776;9.162;2022-09-13T10:12:32;28.90;66.30
292;DHT22;23311;48.776;9.162;2022-09-13T10:15:16;29.30;66.20
292;DHT22;23311;48.776;9.162;2022-09-13T10:18:01;30.00;64.60
292;DHT22;23311;48.776;9.162;2022-09-13T10:20:29;30.40;63.90
292;DHT22;23311;48.776;9.162;2022-09-13T10:23:19;30.90;63.20
292;DHT22;23311;48.776;9.162;2022-09-13T10:26:00;32.00;61.00
292;DHT22;23311;48.776;9.162;2022-09-13T10:28:30;32.70;59.70
292;DHT22;23311;48.776;9.162;2022-09-13T10:31:02;32.60;59.60
292;DHT22;23311;48.776;9.162;2022-09-13T10:33:34;32.50;60.00
292;DHT22;23311;48.776;9.162;2022-09-13T10:36:06;32.60;59.40
292;DHT22;23311;48.776;9.162;2022-09-13T10:38:37;32.30;59.60
292;DHT22;23311;48.776;9.162;2022-09-13T10:41:21;32.50;58.50
292;DHT22;23311;48.776;9.162;2022-09-13T10:43:56;32.00;58.50
292;DHT22;23311;48.776;9.162;2022-09-13T10:46:24;32.20;58.30
292;DHT22;23311;48.776;9.162;2022-09-13T10:48:53;32.50;57.20
292;DHT22;23311;48.776;9.162;2022-09-13T10:51:32;31.60;57.80
292;DHT22;23311;48.776;9.162;2022-09-13T10:54:19;30.70;59.00
292;DHT22;23311;48.776;9.162;2022-09-13T10:56:50;30.30;60.00
292;DHT22;23311;48.776;9.162;2022-09-13T10:59:29;30.10;60.70
292;DHT22;23311;48.776;9.162;2022-09-13T11:02:47;29.70;61.10
292;DHT22;23311;48.776;9.162;2022-09-13T11:08:46;28.70;63.40
292;DHT22;23311;48.776;9.162;2022-09-13T11:11:21;28.90;63.80
292;DHT22;23311;48.776;9.162;2022-09-13T11:14:08;29.00;63.80
292;DHT22;23311;48.776;9.162;2022-09-13T11:16:49;28.40;65.10
292;DHT22;23311;48.776;9.162;2022-09-13T11:19:45;28.50;65.30
292;DHT22;23311;48.776;9.162;2022-09-13T11:22:35;28.70;65.00
292;DHT22;23311;48.776;9.162;2022-09-13T11:25:16;28.90;64.60
292;DHT22;23311;48.776;9.162;2022-09-13T11:27:59;29.20;63.90
292;DHT22;23311;48.776;9.162;2022-09-13T11:30:35;29.60;62.80
292;DHT22;23311;48.776;9.162;2022-09-13T11:33:26;30.70;60.50
292;DHT22;23311;48.776;9.162;2022-09-13T11:36:12;31.30;59.30
292;DHT22;23311;48.776;9.162;2022-09-13T11:38:53;31.50;57.70
292;DHT22;23311;48.776;9.162;2022-09-13T11:41:33;31.30;57.90
292;DHT22;23311;48.776;9.162;2022-09-13T11:44:22;31.30;57.10
292;DHT22;23311;48.776;9.162;2022-09-13T11:47:00;30.60;58.20
292;DHT22;23311;48.776;9.162;2022-09-13T11:49:50;30.00;59.50
292;DHT22;23311;48.776;9.162;2022-09-13T11:52:27;30.50;58.80
292;DHT22;23311;48.776;9.162;2022-09-13T11:55:12;30.20;58.90
292;DHT22;23311;48.776;9.162;2022-09-13T11:57:44;30.80;58.70
292;DHT22;23311;48.776;9.162;2022-09-13T12:00:19;31.50;56.30
292;DHT22;23311;48.776;9.162;2022-09-13T12:02:54;31.90;55.90
292;DHT22;23311;48.776;9.162;2022-09-13T12:05:27;31.50;56.20
292;DHT22;23311;48.776;9.162;2022-09-13T12:08:00;31.70;55.90
292;DHT22;23311;48.776;9.162;2022-09-13T12:10:36;31.30;55.10
292;DHT22;23311;48.776;9.162;2022-09-13T12:13:08;30.90;56.50
292;DHT22;23311;48.776;9.162;2022-09-13T12:15:45;31.50;56.00
292;DHT22;23311;48.776;9.162;2022-09-13T12:18:16;31.90;55.10
292;DHT22;23311;48.776;9.162;2022-09-13T12:20:48;31.70;55.60
292;DHT22;23311;48.776;9.162;2022-09-13T12:23:21;31.50;56.10
292;DHT22;23311;48.776;9.162;2022-09-13T12:25:55;31.20;56.30
292;DHT22;23311;48.776;9.162;2022-09-13T12:28:28;31.50;55.50
292;DHT22;23311;48.776;9.162;2022-09-13T12:31:01;31.90;54.80
292;DHT22;23311;48.776;9.162;2022-09-13T12:33:31;31.40;55.00
292;DHT22;23311;48.776;9.162;2022-09-13T12:39:27;31.00;55.70
292;DHT22;23311;48.776;9.162;2022-09-13T12:42:18;31.30;55.10
292;DHT22;23311;48.776;9.162;2022-09-13T12:45:04;31.50;55.20
292;DHT22;23311;48.776;9.162;2022-09-13T12:50:49;32.90;53.10
292;DHT22;23311;48.776;9.162;2022-09-13T12:53:54;32.70;53.10
292;DHT22;23311;48.776;9.162;2022-09-13T12:56:43;32.50;53.30
292;DHT22;23311;48.776;9.162;2022-09-13T12:59:31;32.70;53.30
292;DHT22;23311;48.776;9.162;2022-09-13T13:02:23;33.40;52.00
292;DHT22;23311;48.776;9.162;2022-09-13T13:04:55;33.40;52.00
292;DHT22;23311;48.776;9.162;2022-09-13T13:07:26;33.50;51.40
292;DHT22;23311;48.776;9.162;2022-09-13T13:09:55;33.40;51.70
292;DHT22;23311;48.776;9.162;2022-09-13T13:12:28;33.60;51.30
292;DHT22;23311;48.776;9.162;2022-09-13T13:14:57;34.00;50.80
292;DHT22;23311;48.776;9.162;2022-09-13T13:17:49;34.20;49.90
292;DHT22;23311;48.776;9.162;2022-09-13T13:20:40;34.40;49.60
292;DHT22;23311;48.776;9.162;2022-09-13T13:23:22;34.00;49.50
292;DHT22;23311;48.776;9.162;2022-09-13T13:25:57;34.30;49.10
292;DHT22;23311;48.776;9.162;2022-09-13T13:28:50;34.80;47.80
292;DHT22;23311;48.776;9.162;2022-09-13T13:31:38;34.90;47.50
292;DHT22;23311;48.776;9.162;2022-09-13T13:34:25;33.90;48.60
292;DHT22;23311;48.776;9.162;2022-09-13T13:36:57;33.00;49.40
292;DHT22;23311;48.776;9.162;2022-09-13T13:39:39;32.40;49.60
292;DHT22;23311;48.776;9.162;2022-09-13T13:42:21;32.80;49.80
292;DHT22;23311;48.776;9.162;2022-09-13T13:45:15;33.50;48.70
292;DHT22;23311;48.776;9.162;2022-09-13T13:48:07;33.70;47.90
292;DHT22;23311;48.776;9.162;2022-09-13T13:51:17;34.00;47.60
292;DHT22;23311;48.776;9.162;2022-09-13T13:53:49;33.10;48.60
292;DHT22;23311;48.776;9.162;2022-09-13T13:56:21;31.80;49.60
292;DHT22;23311;48.776;9.162;2022-09-13T13:58:54;30.80;50.80
292;DHT22;23311;48.776;9.162;2022-09-13T14:01:25;30.50;51.70
292;DHT22;23311;48.776;9.162;2022-09-13T14:07:11;31.00;50.50
292;DHT22;23311;48.776;9.162;2022-09-13T14:09:52;31.00;50.40
292;DHT22;23311;48.776;9.162;2022-09-13T14:12:33;30.70;51.00
292;DHT22;23311;48.776;9.162;2022-09-13T14:15:21;30.50;51.00
292;DHT22;23311;48.776;9.162;2022-09-13T14:18:16;30.70;51.20
292;DHT22;23311;48.776;9.162;2022-09-13T14:21:00;31.00;50.30
292;DHT22;23311;48.776;9.162;2022-09-13T14:23:30;31.00;49.70
292;DHT22;23311;48.776;9.162;2022-09-13T14:26:00;30.90;50.00
292;DHT22;23311;48.776;9.162;2022-09-13T14:28:28;31.10;50.00
292;DHT22;23311;48.776;9.162;2022-09-13T14:30:58;31.10;49.80
292;DHT22;23311;48.776;9.162;2022-09-13T14:33:28;31.10;49.90
292;DHT22;23311;48.776;9.162;2022-09-13T14:36:03;31.00;50.20
292;DHT22;23311;48.776;9.162;2022-09-13T14:38:34;31.40;50.10
292;DHT22;23311;48.776;9.162;2022-09-13T14:41:11;31.60;50.10
292;DHT22;23311;48.776;9.162;2022-09-13T14:43:40;31.80;49.60
292;DHT22;23311;48.776;9.162;2022-09-13T14:46:11;31.80;49.70
292;DHT22;23311;48.776;9.162;2022-09-13T14:48:46;31.70;49.70
292;DHT22;23311;48.776;9.162;2022-09-13T14:51:21;31.50;50.30
292;DHT22;23311;48.776;9.162;2022-09-13T14:53:54;31.10;50.00
292;DHT22;23311;48.776;9.162;2022-09-13T14:56:35;30.80;50.10
292;DHT22;23311;48.776;9.162;2022-09-13T14:59:12;30.60;50.20
292;DHT22;23311;48.776;9.162;2022-09-13T15:01:41;30.60;50.80
292;DHT22;23311;48.776;9.162;2022-09-13T15:04:09;30.50;50.90
292;DHT22;23311;48.776;9.162;2022-09-13T15:06:39;30.40;51.10
292;DHT22;23311;48.776;9.162;2022-09-13T15:09:25;30.00;51.50
292;DHT22;23311;48.776;9.162;2022-09-13T15:11:58;29.80;52.20
292;DHT22;23311;48.776;9.162;2022-09-13T15:14:29;29.80;52.20
292;DHT22;23311;48.776;9.162;2022-09-13T15:17:00;29.50;52.10
292;DHT22;23311;48.776;9.162;2022-09-13T15:19:38;29.50;52.60
292;DHT22;23311;48.776;9.162;2022-09-13T15:22:16;29.40;53.70
292;DHT22;23311;48.776;9.162;2022-09-13T15:24:49;29.20;54.00
292;DHT22;23311;48.776;9.162;2022-09-13T15:27:26;28.80;54.40
292;DHT22;23311;48.776;9.162;2022-09-13T15:29:56;28.80;54.30
292;DHT22;23311;48.776;9.162;2022-09-13T15:32:33;28.80;54.70
292;DHT22;23311;48.776;9.162;2022-09-13T15:35:01;28.80;54.90
292;DHT22;23311;48.776;9.162;2022-09-13T15:37:32;28.90;54.60
292;DHT22;23311;48.776;9.162;2022-09-13T15:40:12;28.90;54.50
292;DHT22;23311;48.776;9.162;2022-09-13T15:42:44;28.70;54.60
292;DHT22;23311;48.776;9.162;2022-09-13T15:45:13;28.60;54.70
292;DHT22;23311;48.776;9.162;2022-09-13T15:47:44;28.60;54.50
292;DHT22;23311;48.776;9.162;2022-09-13T15:50:20;28.60;54.00
292;DHT22;23311;48.776;9.162;2022-09-13T15:52:49;28.50;54.10
292;DHT22;23311;48.776;9.162;2022-09-13T15:55:22;28.50;54.70
292;DHT22;23311;48.776;9.162;2022-09-13T15:57:50;28.40;55.20
292;DHT22;23311;48.776;9.162;2022-09-13T16:00:21;28.30;56.10
292;DHT22;23311;48.776;9.162;2022-09-13T16:02:50;28.10;56.80
292;DHT22;23311;48.776;9.162;2022-09-13T16:05:19;28.00;57.20
292;DHT22;23311;48.776;9.162;2022-09-13T16:07:47;27.90;57.40
292;DHT22;23311;48.776;9.162;2022-09-13T16:10:19;27.80;57.60
292;DHT22;23311;48.776;9.162;2022-09-13T16:12:48;27.80;57.70
292;DHT22;23311;48.776;9.162;2022-09-13T16:15:17;27.70;57.90
292;DHT22;23311;48.776;9.162;2022-09-13T16:17:45;27.60;58.20
292;DHT22;23311;48.776;9.162;2022-09-13T16:20:14;27.60;59.20
292;DHT22;23311;48.776;9.162;2022-09-13T16:22:43;27.50;60.10
292;DHT22;23311;48.776;9.162;2022-09-13T16:25:11;27.40;60.90
292;DHT22;23311;48.776;9.162;2022-09-13T16:27:41;27.30;61.60
292;DHT22;23311;48.776;9.162;2022-09-13T16:30:12;27.30;62.20
292;DHT22;23311;48.776;9.162;2022-09-13T16:32:40;27.10;62.70
292;DHT22;23311;48.776;9.162;2022-09-13T16:35:09;27.00;63.30
292;DHT22;23311;48.776;9.162;2022-09-13T16:37:38;26.90;63.80
292;DHT22;23311;48.776;9.162;2022-09-13T16:40:07;26.80;64.20
292;DHT22;23311;48.776;9.162;2022-09-13T16:42:36;26.80;64.60
292;DHT22;23311;48.776;9.162;2022-09-13T16:45:07;26.70;64.80
292;DHT22;23311;48.776;9.162;2022-09-13T16:47:36;26.60;65.10
292;DHT22;23311;48.776;9.162;2022-09-13T16:50:04;26.60;65.30
292;DHT22;23311;48.776;9.162;2022-09-13T16:52:33;26.50;65.70
292;DHT22;23311;48.776;9.162;2022-09-13T16:55:02;26.50;65.90
292;DHT22;23311;48.776;9.162;2022-09-13T16:57:31;26.40;66.20
292;DHT22;23311;48.776;9.162;2022-09-13T16:59:59;26.40;66.40
292;DHT22;23311;48.776;9.162;2022-09-13T17:02:30;26.40;66.20